createdAt,value
2023-03-21T00:01:53.205Z,96.40
2023-03-21T00:04:22.154Z,97.10
2023-03-21T00:06:49.543Z,96.40
2023-03-21T00:09:17.985Z,96.40
2023-03-21T00:11:45.668Z,96.50
2023-03-21T00:14:18.786Z,96.50
2023-03-21T00:16:50.558Z,96.40
2023-03-21T00:19:20.834Z,96.70
2023-03-21T00:22:08.792Z,96.60
2023-03-21T00:24:37.186Z,96.20
2023-03-21T00:29:52.491Z,96.60
2023-03-21T00:32:21.824Z,96.60
2023-03-21T00:35:01.529Z,96.70
2023-03-21T00:37:29.809Z,96.40
2023-03-21T00:39:57.122Z,96.50
2023-03-21T00:42:24.452Z,97.10
2023-03-21T00:44:51.802Z,96.80
2023-03-21T00:47:19.445Z,96.40
2023-03-21T00:49:46.760Z,96.40
2023-03-21T00:52:22.180Z,96.30
2023-03-21T00:54:54.982Z,96.90
2023-03-21T00:57:37.623Z,96.60
2023-03-21T01:00:10.053Z,96.80
2023-03-21T01:02:38.023Z,97.10
2023-03-21T01:05:05.991Z,96.40
2023-03-21T01:07:33.369Z,96.40
2023-03-21T01:10:00.797Z,96.30
2023-03-21T01:12:28.488Z,96.70
2023-03-21T01:14:57.676Z,96.60
2023-03-21T01:17:25.004Z,96.60
2023-03-21T01:19:52.559Z,96.40
2023-03-21T01:22:21.269Z,96.90
2023-03-21T01:25:05.749Z,96.90
2023-03-21T01:27:36.216Z,96.50
2023-03-21T01:30:11.211Z,96.70
2023-03-21T01:32:45.062Z,96.50
2023-03-21T01:35:12.767Z,96.20
2023-03-21T01:37:41.007Z,96.50
2023-03-21T01:40:12.752Z,96.20
2023-03-21T01:42:42.200Z,96.30
2023-03-21T01:45:47.265Z,97.00
2023-03-21T01:48:16.157Z,96.80
2023-03-21T01:50:51.669Z,96.40
2023-03-21T01:53:38.538Z,96.40
2023-03-21T01:56:13.830Z,96.60
2023-03-21T01:58:50.960Z,96.80
2023-03-21T02:01:31.771Z,96.50
2023-03-21T02:04:03.755Z,96.60
2023-03-21T02:06:59.872Z,96.60
2023-03-21T02:09:40.231Z,96.70
2023-03-21T02:12:13.339Z,97.00
2023-03-21T02:14:40.739Z,97.00
2023-03-21T02:17:48.265Z,96.80
2023-03-21T02:20:45.463Z,96.60
2023-03-21T02:23:23.322Z,97.30
2023-03-21T02:26:03.061Z,96.00
2023-03-21T02:28:33.358Z,96.60
2023-03-21T02:31:37.674Z,96.00
2023-03-21T02:34:23.478Z,96.80
2023-03-21T02:37:17.124Z,97.30
2023-03-21T02:39:59.218Z,96.80
2023-03-21T02:42:32.420Z,96.60
2023-03-21T02:45:04.089Z,95.90
2023-03-21T02:47:44.357Z,96.90
2023-03-21T02:50:46.391Z,96.40
2023-03-21T02:53:17.876Z,97.00
2023-03-21T02:55:47.441Z,96.80
2023-03-21T02:58:22.681Z,96.30
2023-03-21T03:00:56.230Z,96.90
2023-03-21T03:03:35.166Z,96.70
2023-03-21T03:06:12.803Z,96.40
2023-03-21T03:09:10.212Z,96.60
2023-03-21T03:11:43.996Z,96.60
2023-03-21T03:14:56.415Z,97.10
2023-03-21T03:20:44.503Z,96.50
2023-03-21T03:23:50.600Z,95.90
2023-03-21T03:26:48.119Z,96.40
2023-03-21T03:29:18.479Z,96.50
2023-03-21T03:31:59.404Z,96.40
2023-03-21T03:34:39.496Z,96.80
2023-03-21T03:37:14.412Z,96.30
2023-03-21T03:39:49.701Z,96.10
2023-03-21T03:42:43.134Z,96.80
2023-03-21T03:45:22.578Z,96.40
2023-03-21T03:47:56.687Z,96.40
2023-03-21T03:50:26.186Z,96.60
2023-03-21T03:53:04.811Z,96.20
2023-03-21T03:55:34.986Z,96.40
2023-03-21T03:58:21.812Z,96.40
2023-03-21T04:00:52.388Z,96.50
2023-03-21T04:03:19.968Z,96.30
2023-03-21T04:05:47.809Z,96.30
2023-03-21T04:08:17.301Z,96.80
2023-03-21T04:10:49.874Z,96.40
2023-03-21T04:13:17.542Z,96.90
2023-03-21T04:15:51.006Z,96.90
2023-03-21T04:18:18.691Z,96.40
2023-03-21T04:20:48.701Z,96.40
2023-03-21T04:23:18.886Z,96.10
2023-03-21T04:25:55.846Z,96.30
2023-03-21T04:28:26.979Z,96.80
2023-03-21T04:31:24.371Z,96.30
2023-03-21T04:33:55.908Z,96.20
2023-03-21T04:36:27.626Z,96.40
2023-03-21T04:39:01.613Z,96.90
2023-03-21T04:41:30.928Z,96.90
2023-03-21T04:43:58.520Z,97.40
2023-03-21T04:46:26.415Z,97.80
2023-03-21T04:48:53.811Z,96.00
2023-03-21T04:51:21.259Z,96.90
2023-03-21T04:53:49.496Z,96.40
2023-03-21T04:56:17.012Z,96.40
2023-03-21T04:58:46.547Z,96.50
2023-03-21T05:01:14.816Z,96.50
2023-03-21T05:03:42.997Z,96.40
2023-03-21T05:06:10.797Z,96.40
2023-03-21T05:08:38.340Z,97.10
2023-03-21T05:11:06.162Z,96.80
2023-03-21T05:13:33.541Z,96.50
2023-03-21T05:16:00.954Z,96.60
2023-03-21T05:18:28.509Z,97.10
2023-03-21T05:21:10.511Z,96.30
2023-03-21T05:23:41.742Z,96.30
2023-03-21T05:26:10.631Z,96.40
2023-03-21T05:28:48.347Z,96.20
2023-03-21T05:31:17.236Z,96.80
2023-03-21T05:33:48.012Z,96.00
2023-03-21T05:36:18.859Z,96.10
2023-03-21T05:38:46.622Z,97.90
2023-03-21T05:41:18.161Z,96.40
2023-03-21T05:43:47.023Z,96.50
2023-03-21T05:46:16.438Z,96.10
2023-03-21T05:48:43.935Z,96.50
2023-03-21T05:51:17.941Z,96.70
2023-03-21T05:53:46.510Z,96.40
2023-03-21T05:56:15.639Z,97.30
2023-03-21T05:58:56.449Z,97.10
2023-03-21T06:01:24.877Z,96.90
2023-03-21T06:04:01.191Z,96.50
2023-03-21T06:06:30.190Z,97.40
2023-03-21T06:09:01.275Z,97.40
2023-03-21T06:11:34.621Z,96.90
2023-03-21T06:14:40.546Z,96.30
2023-03-21T06:17:24.377Z,96.10
2023-03-21T06:19:57.260Z,96.10
2023-03-21T06:22:33.516Z,96.40
2023-03-21T06:25:03.530Z,98.00
2023-03-21T06:27:32.727Z,96.20
2023-03-21T06:30:00.614Z,96.50
2023-03-21T06:32:32.903Z,96.50
2023-03-21T06:35:08.837Z,97.20
2023-03-21T06:37:38.294Z,96.20
2023-03-21T06:40:09.096Z,96.60
2023-03-21T06:42:36.870Z,96.20
2023-03-21T06:45:10.691Z,96.80
2023-03-21T06:47:38.456Z,97.60
2023-03-21T06:50:12.047Z,97.40
2023-03-21T06:52:42.675Z,96.20
2023-03-21T06:55:10.643Z,97.10
2023-03-21T06:57:38.578Z,97.90
2023-03-21T07:00:09.413Z,97.10
2023-03-21T07:02:41.854Z,96.00
2023-03-21T07:05:14.475Z,96.20
2023-03-21T07:07:42.728Z,96.10
2023-03-21T07:10:10.760Z,95.80
2023-03-21T07:12:46.816Z,96.20
2023-03-21T07:15:21.460Z,97.10
2023-03-21T07:17:49.202Z,96.10
2023-03-21T07:20:16.989Z,97.40
2023-03-21T07:22:44.585Z,96.70
2023-03-21T07:25:12.090Z,97.00
2023-03-21T07:27:41.521Z,97.10
2023-03-21T07:30:10.840Z,97.20
2023-03-21T07:32:38.794Z,97.10
2023-03-21T07:35:13.225Z,96.90
2023-03-21T07:37:42.072Z,96.70
2023-03-21T07:40:12.479Z,97.60
2023-03-21T07:42:41.458Z,95.80
2023-03-21T07:45:14.482Z,97.30
2023-03-21T07:47:42.127Z,96.30
2023-03-21T07:50:10.191Z,97.40
2023-03-21T07:52:38.736Z,95.80
2023-03-21T07:55:06.636Z,96.40
2023-03-21T07:57:34.211Z,97.60
2023-03-21T08:00:01.754Z,96.70
2023-03-21T08:02:29.385Z,97.60
2023-03-21T08:04:57.305Z,96.20
2023-03-21T08:07:24.731Z,96.10
2023-03-21T08:09:56.622Z,95.90
2023-03-21T08:12:25.052Z,97.20
2023-03-21T08:14:53.357Z,96.10
2023-03-21T08:17:21.007Z,96.40
2023-03-21T08:19:49.169Z,96.60
2023-03-21T08:22:17.389Z,95.80
2023-03-21T08:24:45.133Z,97.00
2023-03-21T08:27:12.700Z,96.00
2023-03-21T08:29:42.478Z,97.40
2023-03-21T08:32:10.062Z,96.20
2023-03-21T08:34:37.510Z,95.90
2023-03-21T08:37:07.137Z,96.50
2023-03-21T08:39:36.971Z,97.10
2023-03-21T08:42:05.506Z,96.50
2023-03-21T08:44:33.081Z,98.80
2023-03-21T08:47:01.574Z,95.90
2023-03-21T08:49:32.171Z,95.80
2023-03-21T08:52:00.436Z,98.40
2023-03-21T08:54:28.161Z,97.60
2023-03-21T08:56:56.153Z,96.90
2023-03-21T08:59:23.866Z,96.70
2023-03-21T09:01:51.311Z,96.00
2023-03-21T09:04:19.068Z,96.20
2023-03-21T09:06:49.433Z,96.40
2023-03-21T09:09:16.873Z,95.20
2023-03-21T09:11:44.292Z,95.30
2023-03-21T09:14:11.889Z,95.00
2023-03-21T09:16:39.322Z,95.00
2023-03-21T09:19:08.802Z,95.20
2023-03-21T09:21:36.784Z,94.80
2023-03-21T09:24:06.656Z,95.50
2023-03-21T09:26:34.171Z,95.40
2023-03-21T09:29:04.947Z,96.00
2023-03-21T09:31:32.777Z,96.00
2023-03-21T09:34:00.748Z,95.70
2023-03-21T09:36:28.321Z,95.30
2023-03-21T09:38:57.000Z,95.30
2023-03-21T09:41:32.812Z,95.00
2023-03-21T09:44:24.758Z,94.50
2023-03-21T09:47:20.823Z,94.90
2023-03-21T09:49:56.632Z,94.80
2023-03-21T09:52:44.924Z,94.80
2023-03-21T09:55:26.349Z,94.80
2023-03-21T09:58:26.598Z,94.60
2023-03-21T10:01:32.931Z,94.60
2023-03-21T10:04:07.265Z,94.70
2023-03-21T10:06:40.311Z,94.80
2023-03-21T10:09:22.875Z,94.60
2023-03-21T10:11:56.553Z,94.30
2023-03-21T10:14:37.455Z,94.40
2023-03-21T10:17:28.671Z,94.00
2023-03-21T10:20:14.200Z,94.00
2023-03-21T10:22:42.809Z,93.90
2023-03-21T10:25:15.541Z,93.80
2023-03-21T10:27:43.288Z,94.00
2023-03-21T10:30:26.559Z,93.90
2023-03-21T10:32:59.491Z,93.70
2023-03-21T10:35:27.187Z,93.90
2023-03-21T10:37:54.618Z,94.80
2023-03-21T10:40:22.125Z,95.80
2023-03-21T10:42:57.714Z,93.90
2023-03-21T10:45:25.454Z,93.20
2023-03-21T10:47:53.674Z,94.10
2023-03-21T10:50:25.735Z,93.50
2023-03-21T10:53:00.605Z,93.40
2023-03-21T10:55:34.509Z,93.60
2023-03-21T10:58:07.644Z,93.00
2023-03-21T11:00:43.556Z,92.90
2023-03-21T11:03:31.413Z,92.50
2023-03-21T11:06:16.918Z,92.80
2023-03-21T11:08:51.675Z,92.30
2023-03-21T11:11:39.230Z,92.10
2023-03-21T11:14:24.132Z,92.30
2023-03-21T11:16:51.977Z,92.30
2023-03-21T11:19:30.877Z,92.30
2023-03-21T11:22:04.115Z,91.90
2023-03-21T11:24:33.214Z,92.00
2023-03-21T11:27:01.687Z,92.30
2023-03-21T11:29:45.807Z,92.40
2023-03-21T11:32:32.893Z,92.00
2023-03-21T11:35:06.516Z,92.10
2023-03-21T11:37:38.300Z,92.10
2023-03-21T11:40:25.252Z,92.40
2023-03-21T11:42:58.472Z,92.00
2023-03-21T11:45:35.454Z,91.60
2023-03-21T11:48:12.736Z,91.20
2023-03-21T11:50:47.309Z,91.50
2023-03-21T11:53:14.622Z,91.00
2023-03-21T11:55:53.221Z,91.80
2023-03-21T11:58:45.338Z,91.20
2023-03-21T12:01:26.519Z,91.20
2023-03-21T12:04:21.322Z,91.40
2023-03-21T12:06:56.302Z,91.30
2023-03-21T12:09:38.454Z,91.20
2023-03-21T12:12:12.618Z,90.70
2023-03-21T12:15:04.376Z,90.60
2023-03-21T12:17:50.176Z,90.70
2023-03-21T12:20:30.788Z,91.00
2023-03-21T12:23:27.580Z,90.90
2023-03-21T12:26:12.581Z,90.70
2023-03-21T12:28:39.752Z,90.90
2023-03-21T12:31:21.203Z,92.00
2023-03-21T12:34:04.251Z,91.00
2023-03-21T12:36:42.640Z,90.10
2023-03-21T12:39:21.407Z,89.60
2023-03-21T12:42:04.170Z,87.70
2023-03-21T12:44:39.048Z,88.00
2023-03-21T12:47:27.841Z,86.00
2023-03-21T12:50:01.699Z,85.80
2023-03-21T12:52:55.969Z,86.10
2023-03-21T12:55:29.684Z,85.90
2023-03-21T12:58:14.661Z,85.10
2023-03-21T13:01:11.453Z,86.70
2023-03-21T13:03:47.105Z,84.80
2023-03-21T13:06:18.249Z,84.40
2023-03-21T13:08:52.873Z,84.30
2023-03-21T13:11:24.659Z,84.70
2023-03-21T13:14:16.712Z,83.50
2023-03-21T13:17:00.987Z,83.00
2023-03-21T13:19:38.764Z,82.50
2023-03-21T13:22:12.147Z,83.90
2023-03-21T13:24:48.083Z,82.80
2023-03-21T13:27:36.293Z,82.50
2023-03-21T13:30:26.447Z,82.00
2023-03-21T13:33:13.958Z,82.30
2023-03-21T13:35:44.497Z,82.00
2023-03-21T13:38:16.590Z,82.20
2023-03-21T13:40:45.584Z,82.50
2023-03-21T13:43:44.240Z,83.40
2023-03-21T13:46:14.185Z,83.90
2023-03-21T13:49:09.701Z,84.10
2023-03-21T13:51:37.262Z,83.50
2023-03-21T13:54:22.087Z,83.70
2023-03-21T13:57:04.707Z,83.10
2023-03-21T13:59:38.767Z,84.40
2023-03-21T14:02:12.736Z,84.40
2023-03-21T14:05:03.670Z,84.20
2023-03-21T14:07:34.714Z,82.50
2023-03-21T14:10:06.681Z,82.20
2023-03-21T14:12:42.478Z,81.70
2023-03-21T14:15:43.722Z,81.90
2023-03-21T14:18:27.949Z,81.70
2023-03-21T14:21:05.049Z,81.60
2023-03-21T14:23:32.685Z,84.60
2023-03-21T14:26:00.520Z,83.60
2023-03-21T14:28:33.120Z,83.40
2023-03-21T14:31:01.397Z,81.80
2023-03-21T14:33:39.238Z,83.10
2023-03-21T14:36:16.689Z,82.20
2023-03-21T14:38:44.211Z,81.60
2023-03-21T14:41:23.847Z,82.90
2023-03-21T14:44:27.728Z,81.50
2023-03-21T14:47:22.744Z,81.30
2023-03-21T14:49:50.854Z,81.30
2023-03-21T14:52:27.482Z,80.30
2023-03-21T14:54:56.246Z,80.30
2023-03-21T14:57:28.996Z,81.80
2023-03-21T15:00:00.704Z,81.50
2023-03-21T15:02:34.709Z,82.10
2023-03-21T15:05:23.357Z,82.30
2023-03-21T15:08:01.799Z,81.00
2023-03-21T15:10:31.931Z,81.90
2023-03-21T15:13:05.646Z,82.10
2023-03-21T15:15:54.866Z,82.00
2023-03-21T15:18:37.317Z,84.80
2023-03-21T15:21:45.257Z,82.20
2023-03-21T15:24:17.975Z,82.30
2023-03-21T15:26:47.451Z,81.90
2023-03-21T15:29:17.445Z,83.00
2023-03-21T15:31:46.964Z,83.10
2023-03-21T15:34:28.480Z,82.40
2023-03-21T15:36:58.934Z,82.90
2023-03-21T15:39:29.130Z,83.20
2023-03-21T15:42:24.097Z,84.50
2023-03-21T15:44:55.018Z,82.90
2023-03-21T15:47:58.880Z,83.40
2023-03-21T15:50:39.194Z,83.20
2023-03-21T15:53:13.128Z,83.40
2023-03-21T15:56:02.570Z,83.80
2023-03-21T15:58:44.002Z,84.20
2023-03-21T16:01:20.996Z,84.50
2023-03-21T16:03:56.710Z,83.80
2023-03-21T16:06:33.414Z,84.40
2023-03-21T16:09:22.173Z,85.00
2023-03-21T16:11:52.400Z,84.50
2023-03-21T16:14:21.998Z,84.90
2023-03-21T16:16:50.019Z,85.50
2023-03-21T16:19:17.927Z,85.80
2023-03-21T16:21:45.981Z,88.50
2023-03-21T16:24:13.732Z,87.20
2023-03-21T16:26:47.768Z,88.30
2023-03-21T16:29:15.918Z,87.10
2023-03-21T16:31:44.264Z,90.00
2023-03-21T16:34:12.604Z,86.80
2023-03-21T16:36:41.672Z,87.20
2023-03-21T16:39:24.696Z,87.90
2023-03-21T16:41:52.838Z,86.60
2023-03-21T16:44:20.866Z,87.00
2023-03-21T16:46:48.444Z,89.90
2023-03-21T16:49:27.045Z,87.90
2023-03-21T16:51:56.362Z,87.30
2023-03-21T16:54:23.975Z,87.20
2023-03-21T16:56:54.218Z,88.60
2023-03-21T16:59:22.249Z,87.00
2023-03-21T17:01:49.742Z,87.40
2023-03-21T17:04:18.355Z,86.90
2023-03-21T17:06:49.337Z,86.60
2023-03-21T17:09:19.914Z,88.00
2023-03-21T17:11:48.041Z,87.60
2023-03-21T17:14:18.026Z,88.10
2023-03-21T17:16:46.163Z,87.40
2023-03-21T17:19:18.534Z,89.50
2023-03-21T17:21:46.535Z,87.80
2023-03-21T17:24:14.148Z,88.00
2023-03-21T17:26:41.653Z,89.00
2023-03-21T17:29:12.913Z,88.80
2023-03-21T17:31:40.461Z,89.10
2023-03-21T17:34:08.545Z,90.30
2023-03-21T17:36:38.437Z,88.80
2023-03-21T17:39:08.889Z,89.20
2023-03-21T17:41:36.565Z,89.30
2023-03-21T17:44:04.077Z,90.50
2023-03-21T17:46:38.349Z,89.80
2023-03-21T17:49:06.767Z,89.60
2023-03-21T17:51:34.304Z,89.10
2023-03-21T17:54:04.977Z,90.20
2023-03-21T17:56:34.571Z,88.70
2023-03-21T17:59:07.228Z,89.40
2023-03-21T18:01:35.573Z,89.40
2023-03-21T18:04:05.017Z,90.00
2023-03-21T18:06:34.161Z,89.60
2023-03-21T18:09:06.926Z,89.40
2023-03-21T18:11:34.507Z,89.30
2023-03-21T18:14:15.392Z,89.50
2023-03-21T18:16:43.605Z,89.60
2023-03-21T18:19:13.153Z,89.80
2023-03-21T18:21:41.153Z,89.80
2023-03-21T18:24:08.772Z,89.80
2023-03-21T18:26:36.334Z,89.90
2023-03-21T18:29:57.002Z,90.00
2023-03-21T18:32:04.870Z,90.00
2023-03-21T18:34:34.995Z,90.10
2023-03-21T18:37:04.148Z,90.10
2023-03-21T18:39:33.455Z,90.40
2023-03-21T18:42:05.007Z,90.20
2023-03-21T18:44:37.339Z,90.40
2023-03-21T18:47:06.701Z,90.00
2023-03-21T18:52:22.595Z,90.20
2023-03-21T18:54:50.369Z,90.10
2023-03-21T18:57:35.753Z,90.20
2023-03-21T19:00:17.132Z,90.30
2023-03-21T19:02:48.363Z,90.40
2023-03-21T19:05:18.682Z,90.40
2023-03-21T19:07:48.004Z,90.40
2023-03-21T19:10:19.692Z,90.80
2023-03-21T19:12:49.619Z,90.40
2023-03-21T19:15:19.461Z,90.40
2023-03-21T19:18:28.656Z,90.30
2023-03-21T19:20:35.236Z,90.50
2023-03-21T19:23:03.274Z,90.50
2023-03-21T19:25:30.914Z,90.40
2023-03-21T19:27:58.284Z,90.30
2023-03-21T19:30:25.746Z,90.30
2023-03-21T19:32:53.242Z,90.50
2023-03-21T19:35:20.907Z,90.60
2023-03-21T19:37:48.270Z,90.50
2023-03-21T19:40:15.781Z,90.90
2023-03-21T19:42:43.260Z,90.60
2023-03-21T19:45:11.375Z,90.60
2023-03-21T19:47:38.768Z,90.80
2023-03-21T19:50:45.499Z,90.90
2023-03-21T19:52:55.419Z,90.90
2023-03-21T19:55:23.077Z,90.90
2023-03-21T19:57:50.739Z,91.20
2023-03-21T20:00:18.830Z,91.00
2023-03-21T20:02:47.158Z,91.10
2023-03-21T20:05:16.754Z,91.30
2023-03-21T20:07:44.478Z,91.30
2023-03-21T20:10:12.143Z,91.20
2023-03-21T20:12:39.564Z,91.30
2023-03-21T20:15:17.075Z,91.40
2023-03-21T20:17:47.381Z,91.00
2023-03-21T20:20:17.477Z,91.00
2023-03-21T20:23:07.403Z,91.40
2023-03-21T20:25:38.769Z,91.20
2023-03-21T20:28:15.690Z,91.00
2023-03-21T20:30:53.315Z,91.10
2023-03-21T20:33:21.177Z,91.50
2023-03-21T20:38:37.195Z,91.10
2023-03-21T20:41:07.082Z,91.50
2023-03-21T20:46:22.781Z,91.30
2023-03-21T20:48:50.629Z,91.30
2023-03-21T20:52:35.944Z,92.10
2023-03-21T20:54:06.427Z,91.90
2023-03-21T20:56:34.569Z,91.50
2023-03-21T20:59:16.411Z,91.40
2023-03-21T21:01:45.348Z,91.40
2023-03-21T21:04:19.235Z,91.40
2023-03-21T21:06:48.162Z,91.40
2023-03-21T21:09:16.514Z,91.60
2023-03-21T21:14:31.198Z,91.50
2023-03-21T21:17:02.666Z,92.00
2023-03-21T21:19:35.596Z,91.80
2023-03-21T21:22:03.067Z,91.60
2023-03-21T21:24:32.088Z,91.90
2023-03-21T21:26:59.639Z,91.50
2023-03-21T21:29:28.327Z,91.60
2023-03-21T21:31:56.278Z,91.60
2023-03-21T21:34:23.725Z,91.60
2023-03-21T21:36:51.352Z,91.80
2023-03-21T21:39:18.764Z,91.70
2023-03-21T21:41:46.304Z,91.90
2023-03-21T21:44:13.760Z,92.00
2023-03-21T21:46:42.335Z,91.80
2023-03-21T21:49:09.763Z,92.00
2023-03-21T21:51:37.347Z,91.90
2023-03-21T21:54:04.878Z,91.80
2023-03-21T21:56:38.529Z,91.80
2023-03-21T21:59:06.207Z,92.00
2023-03-21T22:01:38.559Z,92.00
2023-03-21T22:04:08.181Z,91.70
2023-03-21T22:06:35.677Z,91.90
2023-03-21T22:09:04.595Z,91.90
2023-03-21T22:11:32.090Z,92.10
2023-03-21T22:13:59.496Z,92.40
2023-03-21T22:16:26.948Z,92.50
2023-03-21T22:18:54.345Z,92.10
2023-03-21T22:21:21.746Z,91.90
2023-03-21T22:23:49.293Z,91.90
2023-03-21T22:26:16.863Z,92.10
2023-03-21T22:28:44.365Z,91.90
2023-03-21T22:31:16.441Z,91.90
2023-03-21T22:33:45.301Z,92.20
2023-03-21T22:36:13.002Z,92.20
2023-03-21T22:38:41.938Z,92.00
2023-03-21T22:41:09.618Z,92.10
2023-03-21T22:43:37.049Z,91.90
2023-03-21T22:46:05.724Z,91.90
2023-03-21T22:48:33.228Z,91.80
2023-03-21T22:51:01.093Z,92.10
2023-03-21T22:53:29.229Z,91.90
2023-03-21T22:55:56.802Z,92.00
2023-03-21T22:58:24.436Z,91.80
2023-03-21T23:00:52.009Z,91.70
2023-03-21T23:03:19.482Z,92.20
2023-03-21T23:05:46.862Z,91.80
2023-03-21T23:08:14.266Z,91.40
2023-03-21T23:10:43.702Z,92.10
2023-03-21T23:13:11.645Z,92.10
2023-03-21T23:15:39.901Z,91.90
2023-03-21T23:18:07.412Z,91.70
2023-03-21T23:20:34.964Z,91.90
2023-03-21T23:23:02.510Z,91.60
2023-03-21T23:25:31.253Z,91.60
2023-03-21T23:27:58.628Z,92.40
2023-03-21T23:30:26.633Z,92.00
2023-03-21T23:32:54.031Z,92.00
2023-03-21T23:35:21.467Z,91.90
2023-03-21T23:37:52.490Z,91.90
2023-03-21T23:40:21.064Z,91.70
2023-03-21T23:42:48.645Z,92.10
2023-03-21T23:45:16.245Z,91.70
2023-03-21T23:47:43.742Z,91.60
2023-03-21T23:50:11.504Z,91.60
2023-03-21T23:52:41.607Z,91.80
2023-03-21T23:55:09.253Z,91.80
2023-03-21T23:57:38.214Z,91.60
